Liberal Mid-America Regional Airport Liberal US
ICAO: KLBL
IATA: LBL
Category: Medium
Scheduled Services: Yes

Elevation: 2885 ft
TransAlt. 18000 ft.

Airport Communications:
AWOS 3:118.375
KANSAS CITY CNTR:134
WICHITA RDO:122.4
CTAF/UNICOM:122.8

KLBL Zoom In..

Runways:

(A) RW 04 length 5721 ft width 150 ft
---- / hdg 35

(B) RW 17 length 7105 ft width 100 ft
---- / hdg 170

(C) RW 22 length 5721 ft width 150 ft
---- / hdg 215

(D) RW 35 length 7105 ft width 100 ft
ILS 111.30 / hdg 350

Location; KLBL
Day. 26 / Time. 12.56 Zulu
* Altimeter: 29.92
* Temperature: 18° c. 64.4°f.
* Wind from: 180° Speed 04 kn.
Dewpoint: 18° c.
Visibility: 8 Statute Miles.
Clouds: Clear (automated report).

KLBL 261256Z AUTO 18004KT 8SM CLR 18/18 A2992 RMK AO2 SLP100 T01830183


Wind From 180°
Speed 04 kn.

 
 
jpsmedia.com for Web Design SOUNDCLOUD worldairports.se 2018   terms of use